Rosenberg, TX (77471)

12:31 AM CDT on March 30, 2015 (GMT -0500)
Medic One Fort Bend County EMS | | Change Station
CLOSE
Current Station
Personal Weather Station
Location: Rosenberg, TX
Elevation: 105 ft
Nearby Weather Stations

Elev 105 ft 29.52 °N, 95.81 °W | Updated 27 seconds ago

Clear
Clear
66.0 °F
Feels Like 66.0 °F
N
0.0
Wind Variable Wind from SE
Gusts 0.0 mph

Today
High -- | Low -- °F
--% Chance of Precip.
Yesterday
High -- | Low -- °F
Precip. -- in
7:15 AM 7:40 PM
Waxing Gibbous, 77% visible
Pressure 30.15 in
Visibility 10.0 miles
Clouds Clear
Dew Point 20 °F
Humidity 17%
Rainfall 0.00 in
Snow Depth Not available.
UV 0 out of 12
Pollen 10.30 out of 12
Air Quality Not available.
Flu Activity Not available.
METAR KSGR 300453Z AUTO 19007KT 10SM CLR 19/17 A3014 RMK AO2 SLP209 T01940172

More Conditions Fewer Conditions

Pressure 30.15 in
Visibility 10.0 miles
Clouds Clear
Dew Point 20 °F
Humidity 17%
Rainfall 0.00 in
Snow Depth Not available.
UV 0 out of 12
Pollen 10.30 out of 12
Air Quality Not available.
Flu Activity Not available.
METAR KSGR 300453Z AUTO 19007KT 10SM CLR 19/17 A3014 RMK AO2 SLP209 T01940172

More Conditions Fewer Conditions

10-Day Weather Forecast

Almanac

Astronomy

Mar. 30, 2015 Rise Set
Actual Time
Civil Twilight
Nautical Twilight
Astronomical Twilight
Moon
Length of Visible Light
Length of Day
Tomorrow will be .
, % of the Moon is Illuminated

Today's Extremes

State Highs State Lows

Community

WunderPhotos

Upload Photos

1,809,437 photos uploaded!

WunderBlogs® & News

Nearby

Air Quality

  Air Quality AQ Index Pollutant
Not available.

Snow Depth

Station Depth Elevation

Earthquake Activity

City Distance Mag. Time & Date
Minimum magnitude displayed is 2.5.

Coastal Water Temperatures

Place Temperature

Stations

Nearby Weather Stations

Station Location Temp. Windchill Dew Point Humidity Wind Precip. Elev Updated Type